Time;durP1;ratioP1;P1;durP2;ratioP2;P2;SDS_P1;SDS_P2;PMS_P1;PMS_P2;Temp;Humidity;BMP_temperature;BMP_pressure;BME280_temperature;BME280_humidity;BME280_pressure;Samples;Min_cycle;Max_cycle;Signal;HPM_P1;HPM_P2
2022/03/11 00:00:46;;;;;;;;;;;;;;;6.39;57.75;101912;;;;-80
2022/03/11 00:05:46;;;;;;;;;;;;;;;6.35;58.41699;101910.2;;;;-80
2022/03/11 00:06:56;;;;;;;11.3;4.8;;;;;;;;;;;;;-81
2022/03/11 00:10:48;;;;;;;;;;;;;;;6.29;57.99023;101909.4;;;;-82
2022/03/11 00:15:49;;;;;;;;;;;;;;;6.26;57.58984;101906.4;;;;-80
2022/03/11 00:20:47;;;;;;;;;;;;;;;6.22;57.92578;101898.6;;;;-81
2022/03/11 00:25:45;;;;;;;;;;;;;;;6.18;58.24023;101896.8;;;;-81
2022/03/11 00:30:54;;;;;;;;;;;;;;;6.14;57.91602;101893.1;;;;-80
2022/03/11 00:35:47;;;;;;;;;;;;;;;6.05;58.47656;101890.8;;;;-81
2022/03/11 00:36:58;;;;;;;11.3;4.6;;;;;;;;;;;;;-82
2022/03/11 00:40:47;;;;;;;;;;;;;;;6.04;58.57422;101887.8;;;;-81
2022/03/11 00:45:46;;;;;;;;;;;;;;;5.98;58.76367;101891.9;;;;-82
2022/03/11 00:50:46;;;;;;;;;;;;;;;5.94;58.19629;101887;;;;-79
2022/03/11 00:55:51;;;;;;;;;;;;;;;5.89;59.23633;101883.9;;;;-81
2022/03/11 01:00:46;;;;;;;;;;;;;;;5.85;58.9873;101878.1;;;;-81
2022/03/11 01:05:45;;;;;;;;;;;;;;;5.74;58.53223;101873.9;;;;-82
2022/03/11 01:06:55;;;;;;;9.3;4.2;;;;;;;;;;;;;-82
2022/03/11 01:10:46;;;;;;;;;;;;;;;5.68;58.66797;101870;;;;-81
2022/03/11 01:15:48;;;;;;;;;;;;;;;5.6;59.03125;101864.4;;;;-80
2022/03/11 01:20:49;;;;;;;;;;;;;;;5.54;58.92383;101864.1;;;;-81
2022/03/11 01:25:48;;;;;;;;;;;;;;;5.48;59.11328;101852.8;;;;-80
2022/03/11 01:30:46;;;;;;;;;;;;;;;5.42;59.16016;101852.6;;;;-82
2022/03/11 01:35:48;;;;;;;;;;;;;;;5.36;59.36133;101842.4;;;;-81
2022/03/11 01:36:56;;;;;;;11.5;4.5;;;;;;;;;;;;;-82
2022/03/11 01:40:46;;;;;;;;;;;;;;;5.34;59.66699;101836.2;;;;-81
2022/03/11 01:45:49;;;;;;;;;;;;;;;5.28;59.41602;101833.2;;;;-81
2022/03/11 01:50:46;;;;;;;;;;;;;;;5.22;59.72656;101824.8;;;;-80
2022/03/11 01:55:46;;;;;;;;;;;;;;;5.16;59.96094;101817.4;;;;-81
2022/03/11 02:00:48;;;;;;;;;;;;;;;5.12;59.76758;101812.5;;;;-81
2022/03/11 02:05:48;;;;;;;;;;;;;;;5.07;59.76172;101805.8;;;;-80
2022/03/11 02:07:01;;;;;;;11.1;4.7;;;;;;;;;;;;;-81
2022/03/11 02:10:47;;;;;;;;;;;;;;;5.04;59.85645;101797.6;;;;-82
2022/03/11 02:15:46;;;;;;;;;;;;;;;4.97;60.19824;101788.3;;;;-80
2022/03/11 02:20:47;;;;;;;;;;;;;;;4.95;60.0957;101786.8;;;;-81
2022/03/11 02:25:55;;;;;;;;;;;;;;;4.87;60.19531;101782.9;;;;-81
2022/03/11 02:30:46;;;;;;;;;;;;;;;4.81;60.09863;101778.1;;;;-82
2022/03/11 02:35:47;;;;;;;;;;;;;;;4.8;60.22852;101770;;;;-81
2022/03/11 02:36:54;;;;;;;12.6;4.8;;;;;;;;;;;;;-82
2022/03/11 02:40:52;;;;;;;;;;;;;;;4.76;60.29004;101768.1;;;;-82
2022/03/11 02:45:45;;;;;;;;;;;;;;;4.72;60.2627;101760.6;;;;-80
2022/03/11 02:50:46;;;;;;;;;;;;;;;4.66;60.46094;101759.6;;;;-80
2022/03/11 02:55:48;;;;;;;;;;;;;;;4.62;60.38965;101751.5;;;;-80
2022/03/11 03:00:48;;;;;;;;;;;;;;;4.59;60.58496;101751.9;;;;-80
2022/03/11 03:05:49;;;;;;;;;;;;;;;4.57;60.82227;101749.8;;;;-80
2022/03/11 03:06:56;;;;;;;11.1;4.6;;;;;;;;;;;;;-81
2022/03/11 03:10:49;;;;;;;;;;;;;;;4.51;60.51758;101747.7;;;;-82
2022/03/11 03:15:48;;;;;;;;;;;;;;;4.42;60.58203;101740.2;;;;-80
2022/03/11 03:20:49;;;;;;;;;;;;;;;4.45;60.70703;101738.6;;;;-81
2022/03/11 03:25:48;;;;;;;;;;;;;;;4.41;60.69043;101737.3;;;;-81
2022/03/11 03:30:51;;;;;;;;;;;;;;;4.38;60.49902;101737.7;;;;-82
2022/03/11 03:35:49;;;;;;;;;;;;;;;4.33;60.54688;101733.8;;;;-81
2022/03/11 03:36:57;;;;;;;13;5;;;;;;;;;;;;;-83
2022/03/11 03:40:47;;;;;;;;;;;;;;;4.32;60.50098;101733;;;;-82
2022/03/11 03:45:48;;;;;;;;;;;;;;;4.33;60.76563;101732.7;;;;-82
2022/03/11 03:50:56;;;;;;;;;;;;;;;4.34;60.56934;101732.2;;;;-80
2022/03/11 03:55:47;;;;;;;;;;;;;;;4.32;60.43652;101729.7;;;;-80
2022/03/11 04:00:45;;;;;;;;;;;;;;;4.29;60.3877;101725.8;;;;-82
2022/03/11 04:05:45;;;;;;;;;;;;;;;4.28;60.375;101722.1;;;;-80
2022/03/11 04:07:00;;;;;;;10.4;4.9;;;;;;;;;;;;;-81
2022/03/11 04:10:47;;;;;;;;;;;;;;;4.28;60.74805;101716.9;;;;-81
2022/03/11 04:15:46;;;;;;;;;;;;;;;4.26;60.4043;101708.8;;;;-81
2022/03/11 04:20:45;;;;;;;;;;;;;;;4.29;60.73828;101705;;;;-80
2022/03/11 04:25:47;;;;;;;;;;;;;;;4.25;60.64551;101706.3;;;;-80
2022/03/11 04:30:46;;;;;;;;;;;;;;;4.24;60.27051;101705;;;;-81
2022/03/11 04:35:47;;;;;;;;;;;;;;;4.25;60.51465;101701.1;;;;-82
2022/03/11 04:40:45;;;;;;;;;;;;;;;4.23;60.3457;101694.7;;;;-80
2022/03/11 04:45:56;;;;;;;;;;;;;;;4.18;60.28418;101686.3;;;;-80
2022/03/11 04:50:47;;;;;;;;;;;;;;;4.18;60.54785;101681.4;;;;-82
2022/03/11 04:55:46;;;;;;;;;;;;;;;4.15;60.37988;101681.1;;;;-83
2022/03/11 05:00:46;;;;;;;;;;;;;;;4.09;60.42578;101682.5;;;;-81
2022/03/11 05:05:47;;;;;;;;;;;;;;;4.05;60.37598;101681.8;;;;-81
2022/03/11 05:06:55;;;;;;;11.8;4.9;;;;;;;;;;;;;-81
2022/03/11 05:10:46;;;;;;;;;;;;;;;4.05;60.54102;101677.9;;;;-80
2022/03/11 05:15:53;;;;;;;;;;;;;;;4.05;60.35449;101671.5;;;;-81
2022/03/11 05:20:46;;;;;;;;;;;;;;;4.06;60.55176;101672.6;;;;-81
2022/03/11 05:25:50;;;;;;;;;;;;;;;4.06;60.47461;101669.5;;;;-81
2022/03/11 05:30:51;;;;;;;;;;;;;;;4.04;60.28711;101662.2;;;;-81
2022/03/11 05:35:45;;;;;;;;;;;;;;;4.03;60.42773;101662.9;;;;-81
2022/03/11 05:36:52;;;;;;;11.5;5.1;;;;;;;;;;;;;-81
2022/03/11 05:40:48;;;;;;;;;;;;;;;4.06;60.39941;101663.1;;;;-81
2022/03/11 05:45:58;;;;;;;;;;;;;;;4.05;60.31055;101660.1;;;;-81
2022/03/11 05:50:46;;;;;;;;;;;;;;;4.03;60.2207;101652.7;;;;-81
2022/03/11 05:55:49;;;;;;;;;;;;;;;4.04;60.22168;101650.6;;;;-81
2022/03/11 06:00:49;;;;;;;;;;;;;;;4.03;60.06543;101646.6;;;;-82
2022/03/11 06:05:46;;;;;;;;;;;;;;;4.03;60.14258;101646.2;;;;-81
2022/03/11 06:06:55;;;;;;;11.7;4.8;;;;;;;;;;;;;-79
2022/03/11 06:10:49;;;;;;;;;;;;;;;4.01;59.94238;101644;;;;-81
2022/03/11 06:15:49;;;;;;;;;;;;;;;4.03;60.25293;101641.1;;;;-81
2022/03/11 06:20:48;;;;;;;;;;;;;;;4.03;60.15332;101644.1;;;;-81
2022/03/11 06:25:46;;;;;;;;;;;;;;;4.04;60.14453;101648.5;;;;-82
2022/03/11 06:30:50;;;;;;;;;;;;;;;4.02;60.18457;101651.2;;;;-81
2022/03/11 06:35:54;;;;;;;;;;;;;;;4.02;60.22852;101651;;;;-81
2022/03/11 06:36:52;;;;;;;12;5.2;;;;;;;;;;;;;-81
2022/03/11 06:40:50;;;;;;;;;;;;;;;4.05;60.28906;101647.5;;;;-81
2022/03/11 06:46:07;;;;;;;;;;;;;;;4.13;60.13477;101643.8;;;;-82
2022/03/11 07:05:37;;;;;;;;;;;;;;;4.45;59.89453;101639.9;;;;-81
2022/03/11 07:06:54;;;;;;;11.5;5.2;;;;;;;;;;;;;-79
2022/03/11 07:10:41;;;;;;;;;;;;;;;4.55;59.74414;101637.1;;;;-81
2022/03/11 07:15:34;;;;;;;;;;;;;;;4.64;59.70117;101628.8;;;;-79
2022/03/11 07:20:38;;;;;;;;;;;;;;;4.74;59.76953;101621.2;;;;-80
2022/03/11 07:25:38;;;;;;;;;;;;;;;4.85;59.69824;101623.1;;;;-79
2022/03/11 07:30:36;;;;;;;;;;;;;;;4.98;59.375;101624.6;;;;-80
2022/03/11 07:35:39;;;;;;;;;;;;;;;5.12;59.25098;101624.6;;;;-82
2022/03/11 07:37:02;;;;;;;14.2;5.8;;;;;;;;;;;;;-81
2022/03/11 07:40:41;;;;;;;;;;;;;;;5.28;59.14063;101620.9;;;;-79
2022/03/11 07:45:33;;;;;;;;;;;;;;;5.46;58.74707;101617.1;;;;-81
2022/03/11 07:50:41;;;;;;;;;;;;;;;5.64;58.28906;101611;;;;-81
2022/03/11 07:55:33;;;;;;;;;;;;;;;5.81;58.06836;101597.8;;;;-79
2022/03/11 08:00:37;;;;;;;;;;;;;;;6.08;58.22656;101599.7;;;;-80
2022/03/11 08:05:33;;;;;;;;;;;;;;;6.37;57.55957;101592.1;;;;-82
2022/03/11 08:06:51;;;;;;;13.8;6.2;;;;;;;;;;;;;-79
2022/03/11 08:10:38;;;;;;;;;;;;;;;6.69;58.39746;101581.7;;;;-80
2022/03/11 08:15:33;;;;;;;;;;;;;;;7.09;57.88672;101578.6;;;;-81
2022/03/11 08:20:38;;;;;;;;;;;;;;;7.39;57.83789;101581;;;;-81
2022/03/11 08:25:34;;;;;;;;;;;;;;;7.73;56.14648;101578.8;;;;-82
2022/03/11 08:30:38;;;;;;;;;;;;;;;8.09;56.01563;101567.8;;;;-80
2022/03/11 08:35:36;;;;;;;;;;;;;;;8.39;54.95605;101565.3;;;;-83
2022/03/11 08:37:01;;;;;;;15.4;7;;;;;;;;;;;;;-80
2022/03/11 08:40:38;;;;;;;;;;;;;;;8.76;54.00488;101554.7;;;;-80
2022/03/11 08:45:36;;;;;;;;;;;;;;;8.9;52.86719;101546.3;;;;-80
2022/03/11 08:50:36;;;;;;;;;;;;;;;9.31;53.08398;101548.7;;;;-80
2022/03/11 08:55:33;;;;;;;;;;;;;;;9.48;52.28125;101545.6;;;;-81
2022/03/11 09:00:36;;;;;;;;;;;;;;;9.66;50.63184;101543.9;;;;-81
2022/03/11 09:05:37;;;;;;;;;;;;;;;9.77;50.77832;101540.9;;;;-82
2022/03/11 09:06:53;;;;;;;15.7;7.4;;;;;;;;;;;;;-78
2022/03/11 09:12:14;;;;;;;;;;;;;;;10.08;50.43555;101523.2;;;;-80
2022/03/11 09:17:16;;;;;;;;;;;;;;;10.22;50.5293;101513;;;;-80
2022/03/11 09:22:17;;;;;;;;;;;;;;;10.53;49.88477;101514.9;;;;-82
2022/03/11 09:27:23;;;;;;;;;;;;;;;10.91;49.67188;101497.8;;;;-81
2022/03/11 09:32:14;;;;;;;;;;;;;;;11.17;48.60449;101492.5;;;;-83
2022/03/11 09:36:52;;;;;;;16.2;7.8;;;;;;;;;;;;;-81
2022/03/11 09:37:15;;;;;;;;;;;;;;;11.25;48.2998;101493.7;;;;-81
2022/03/11 09:42:22;;;;;;;;;;;;;;;11.34;48.5;101490.9;;;;-81
2022/03/11 09:47:14;;;;;;;;;;;;;;;11.54;48.26465;101485.8;;;;-82
2022/03/11 09:52:17;;;;;;;;;;;;;;;11.66;47.40527;101485.7;;;;-81
2022/03/11 09:57:19;;;;;;;;;;;;;;;11.77;47.0918;101469.1;;;;-79
2022/03/11 10:02:23;;;;;;;;;;;;;;;11.92;47.8252;101471.9;;;;-83
2022/03/11 10:06:54;;;;;;;20.8;8.6;;;;;;;;;;;;;-80
2022/03/11 10:07:23;;;;;;;;;;;;;;;12.07;47.58398;101473.6;;;;-82
2022/03/11 10:12:26;;;;;;;;;;;;;;;12.22;47.43164;101461.4;;;;-81
2022/03/11 10:17:30;;;;;;;;;;;;;;;12.36;47.16699;101447.1;;;;-81
2022/03/11 10:22:26;;;;;;;;;;;;;;;12.48;47.08984;101450.1;;;;-83
2022/03/11 10:27:23;;;;;;;;;;;;;;;12.66;47.04199;101450.3;;;;-81
2022/03/11 10:32:25;;;;;;;;;;;;;;;12.83;47.84668;101440.9;;;;-82
2022/03/11 10:37:01;;;;;;;19;9.2;;;;;;;;;;;;;-80
2022/03/11 10:37:19;;;;;;;;;;;;;;;12.88;47.51563;101432.3;;;;-81
2022/03/11 10:42:36;;;;;;;;;;;;;;;12.95;46.58984;101427.1;;;;-82
2022/03/11 10:47:37;;;;;;;;;;;;;;;13.04;46.31934;101409.5;;;;-80
2022/03/11 10:57:22;;;;;;;;;;;;;;;13.27;47.61426;101396.1;;;;-85
2022/03/11 11:02:25;;;;;;;;;;;;;;;13.45;48.03809;101395.3;;;;-83
2022/03/11 11:06:57;;;;;;;18.2;9.6;;;;;;;;;;;;;-82
2022/03/11 11:07:19;;;;;;;;;;;;;;;13.66;47.92676;101401.1;;;;-83
2022/03/11 11:12:36;;;;;;;;;;;;;;;13.89;47.87207;101401.7;;;;-83
2022/03/11 11:17:24;;;;;;;;;;;;;;;14.02;47.99902;101401.8;;;;-81
2022/03/11 11:22:23;;;;;;;;;;;;;;;14.06;47.48535;101385.6;;;;-83
2022/03/11 11:27:22;;;;;;;;;;;;;;;14.22;48.50586;101375.8;;;;-81
2022/03/11 11:32:19;;;;;;;;;;;;;;;14.33;46.79297;101376;;;;-83
2022/03/11 11:37:00;;;;;;;22.7;9.5;;;;;;;;;;;;;-82
2022/03/11 11:37:30;;;;;;;;;;;;;;;14.44;49.01465;101363;;;;-81
2022/03/11 11:42:22;;;;;;;;;;;;;;;14.57;48.39746;101361.1;;;;-82
2022/03/11 11:47:20;;;;;;;;;;;;;;;14.67;48.26172;101365.3;;;;-82
2022/03/11 11:52:28;;;;;;;;;;;;;;;14.7;49.35938;101351.3;;;;-82
2022/03/11 12:02:37;;;;;;;;;;;;;;;15.07;50.22363;101341.1;;;;-83
2022/03/11 12:07:05;;;;;;;21.1;10.5;;;;;;;;;;;;;-82
2022/03/11 12:07:29;;;;;;;;;;;;;;;15.18;49.76367;101329.2;;;;-83
2022/03/11 12:12:34;;;;;;;;;;;;;;;15.05;48.01074;101328.1;;;;-82
2022/03/11 12:17:32;;;;;;;;;;;;;;;14.99;47.58691;101318.6;;;;-84
2022/03/11 12:22:41;;;;;;;;;;;;;;;15.08;50.04492;101305.7;;;;-84
2022/03/11 12:27:30;;;;;;;;;;;;;;;15.15;49.89551;101298.2;;;;-82
2022/03/11 12:32:19;;;;;;;;;;;;;;;15.22;49.33789;101288.2;;;;-83
2022/03/11 12:36:59;;;;;;;19.4;10.4;;;;;;;;;;;;;-81
2022/03/11 12:37:23;;;;;;;;;;;;;;;15.16;49.83887;101282.8;;;;-80
2022/03/11 12:42:47;;;;;;;;;;;;;;;15.27;49.95313;101264.9;;;;-87
2022/03/11 12:47:48;;;;;;;;;;;;;;;15.35;50.03027;101258.7;;;;-85
2022/03/11 12:52:28;;;;;;;;;;;;;;;15.4;50.95117;101246.5;;;;-83
2022/03/11 12:57:23;;;;;;;;;;;;;;;15.51;50.05957;101240.3;;;;-85
2022/03/11 13:02:35;;;;;;;;;;;;;;;15.74;51.93848;101224;;;;-85
2022/03/11 13:07:38;;;;;;;;;;;;;;;15.71;48.66992;101220.9;;;;-82
2022/03/11 13:21:39;;;;;;;;;;;;;;;15.61;47.61816;101221.2;;;;-83
2022/03/11 13:26:27;;;;;;;;;;;;;;;15.63;49.10254;101216.3;;;;-82
2022/03/11 13:31:38;;;;;;;;;;;;;;;15.65;48.13184;101212.4;;;;-81
2022/03/11 13:36:31;;;;;;;;;;;;;;;15.55;46.93457;101215.3;;;;-81
2022/03/11 13:37:25;;;;;;;23.8;11.1;;;;;;;;;;;;;-80
2022/03/11 13:41:49;;;;;;;;;;;;;;;15.54;47.12598;101215.8;;;;-82
2022/03/11 13:46:44;;;;;;;;;;;;;;;15.62;49.15625;101204.8;;;;-82
2022/03/11 14:10:08;;;;;;;;;;;;;;;15.77;46.17871;101177.4;;;;-87
2022/03/11 14:29:47;;;;;;;;;;;;;;;15.82;46.25;101162.8;;;;-87
2022/03/11 14:34:46;;;;;;;;;;;;;;;15.81;46.73633;101184.4;;;;-87
2022/03/11 14:37:35;;;;;;;24.4;11.1;;;;;;;;;;;;;-87
2022/03/11 14:43:43;;;;;;;;;;;;;;;15.73;46.99902;101177.7;;;;-82
2022/03/11 14:48:53;;;;;;;;;;;;;;;15.71;46.68066;101170.1;;;;-80
2022/03/11 14:53:40;;;;;;;;;;;;;;;15.72;46.69141;101164.2;;;;-82
2022/03/11 14:58:42;;;;;;;;;;;;;;;15.65;46.06348;101164.6;;;;-83
2022/03/11 15:03:43;;;;;;;;;;;;;;;15.68;46.77832;101154.1;;;;-83
2022/03/11 15:07:28;;;;;;;21.5;10.8;;;;;;;;;;;;;-83
2022/03/11 15:08:56;;;;;;;;;;;;;;;15.63;46.02734;101153.1;;;;-85
2022/03/11 15:13:41;;;;;;;;;;;;;;;15.7;45.37891;101152.9;;;;-83
2022/03/11 15:18:42;;;;;;;;;;;;;;;15.76;44.77344;101151.5;;;;-81
2022/03/11 15:23:39;;;;;;;;;;;;;;;15.66;44.89941;101160.9;;;;-81
2022/03/11 15:33:56;;;;;;;;;;;;;;;15.49;46.59961;101147.1;;;;-82
2022/03/11 15:37:24;;;;;;;19.7;10.2;;;;;;;;;;;;;-80
2022/03/11 15:38:38;;;;;;;;;;;;;;;15.41;47.02051;101141.4;;;;-83
2022/03/11 15:43:43;;;;;;;;;;;;;;;15.34;46.82227;101133.2;;;;-83
2022/03/11 15:48:40;;;;;;;;;;;;;;;15.19;47.29199;101128.7;;;;-81
2022/03/11 15:53:39;;;;;;;;;;;;;;;15.05;47.90918;101127.9;;;;-80
2022/03/11 15:58:42;;;;;;;;;;;;;;;14.91;48.40137;101128.1;;;;-80
2022/03/11 16:03:54;;;;;;;;;;;;;;;14.75;48.08887;101131.8;;;;-81
2022/03/11 16:09:02;;;;;;;;;;;;;;;14.55;48.36133;101127.2;;;;-81
2022/03/11 16:13:39;;;;;;;;;;;;;;;14.36;48.71191;101120.8;;;;-80
2022/03/11 16:18:44;;;;;;;;;;;;;;;14.16;48.53223;101123.7;;;;-82
2022/03/11 16:23:49;;;;;;;;;;;;;;;13.98;48.88477;101122.3;;;;-84
2022/03/11 16:28:13;;;;;;;;;;;;;;;13.85;49.08301;101121.9;;;;-83
2022/03/11 16:33:14;;;;;;;;;;;;;;;13.71;49.48438;101124;;;;-81
2022/03/11 16:37:17;;;;;;;22;10.1;;;;;;;;;;;;;-82
2022/03/11 16:38:13;;;;;;;;;;;;;;;13.59;49.62695;101129.7;;;;-82
2022/03/11 16:43:19;;;;;;;;;;;;;;;13.47;49.58105;101130.7;;;;-80
2022/03/11 16:48:11;;;;;;;;;;;;;;;13.36;49.80469;101146.9;;;;-80
2022/03/11 16:53:10;;;;;;;;;;;;;;;13.26;50.0166;101151.5;;;;-80
2022/03/11 16:58:12;;;;;;;;;;;;;;;13.16;50.28711;101158.3;;;;-80
2022/03/11 17:03:14;;;;;;;;;;;;;;;13.04;50.57715;101156.5;;;;-83
2022/03/11 17:07:22;;;;;;;20.3;10.3;;;;;;;;;;;;;-80
2022/03/11 17:08:11;;;;;;;;;;;;;;;12.92;50.4502;101157.6;;;;-80
2022/03/11 17:13:09;;;;;;;;;;;;;;;12.79;50.69336;101164.1;;;;-81
2022/03/11 17:18:21;;;;;;;;;;;;;;;12.65;50.91211;101167;;;;-82
2022/03/11 17:23:14;;;;;;;;;;;;;;;12.54;50.88965;101173.4;;;;-82
2022/03/11 17:28:12;;;;;;;;;;;;;;;12.42;51.15527;101185.4;;;;-83
2022/03/11 17:33:21;;;;;;;;;;;;;;;12.31;51.27637;101203.3;;;;-80
2022/03/11 17:37:38;;;;;;;20.4;10.1;;;;;;;;;;;;;-83
2022/03/11 17:38:16;;;;;;;;;;;;;;;12.17;51.28223;101212.8;;;;-81
2022/03/11 17:43:19;;;;;;;;;;;;;;;12.04;51.47949;101215.3;;;;-82
2022/03/11 17:48:17;;;;;;;;;;;;;;;11.92;51.8457;101219.6;;;;-80
2022/03/11 17:53:19;;;;;;;;;;;;;;;11.79;52.38086;101215.8;;;;-79
2022/03/11 17:58:12;;;;;;;;;;;;;;;11.67;52.44336;101223.2;;;;-80
2022/03/11 18:03:17;;;;;;;;;;;;;;;11.56;52.45313;101225.3;;;;-78
2022/03/11 18:07:20;;;;;;;20;10.2;;;;;;;;;;;;;-78
2022/03/11 18:08:13;;;;;;;;;;;;;;;11.46;52.66406;101222.5;;;;-78
2022/03/11 18:13:18;;;;;;;;;;;;;;;11.36;52.26074;101225.6;;;;-78
2022/03/11 18:18:17;;;;;;;;;;;;;;;11.27;52.88574;101233.9;;;;-77
2022/03/11 18:23:19;;;;;;;;;;;;;;;11.16;52.85059;101240.7;;;;-76
2022/03/11 18:33:11;;;;;;;;;;;;;;;10.98;53.12012;101235.6;;;;-76
2022/03/11 18:37:23;;;;;;;21.4;10.1;;;;;;;;;;;;;-75
2022/03/11 18:38:25;;;;;;;;;;;;;;;10.89;53.0625;101234.8;;;;-76
2022/03/11 18:48:22;;;;;;;;;;;;;;;;;;;;;
2022/03/11 19:22:00;;;;;;;;;;;;;;;10.34;52.87402;101215.9;;;;-76
2022/03/11 19:27:17;;;;;;;;;;;;;;;10.29;52.86719;101227.1;;;;-76
2022/03/11 19:51:43;;;;;;;;;;;;;;;9.97;52.2832;101225.5;;;;-77
2022/03/11 20:01:47;;;;;;;;;;;;;;;9.87;52.31641;101234.7;;;;-77
2022/03/11 20:06:42;;;;;;;;;;;;;;;9.83;52.41113;101229.9;;;;-77
2022/03/11 20:07:29;;;;;;;23.3;10.5;;;;;;;;;;;;;-75
2022/03/11 20:12:04;;;;;;;;;;;;;;;9.76;51.85742;101237.1;;;;-76
2022/03/11 20:21:57;;;;;;;;;;;;;;;9.63;51.75293;101244.3;;;;-76
2022/03/11 20:26:23;;;;;;;;;;;;;;;9.58;51.82617;101247.5;;;;-74
2022/03/11 20:31:20;;;;;;;;;;;;;;;9.53;51.80859;101248.3;;;;-76
2022/03/11 20:36:15;;;;;;;;;;;;;;;9.49;51.8584;101255.8;;;;-76
2022/03/11 20:37:34;;;;;;;22.7;10.4;;;;;;;;;;;;;-75
2022/03/11 20:41:18;;;;;;;;;;;;;;;9.45;51.96582;101252.5;;;;-76
2022/03/11 20:46:26;;;;;;;;;;;;;;;9.41;51.65918;101252.6;;;;-75
2022/03/11 20:51:11;;;;;;;;;;;;;;;9.36;51.91016;101253.6;;;;-76
2022/03/11 20:56:18;;;;;;;;;;;;;;;9.34;51.83984;101258.6;;;;-76
2022/03/11 21:01:11;;;;;;;;;;;;;;;9.3;51.74707;101266.6;;;;-75
2022/03/11 21:06:14;;;;;;;;;;;;;;;9.27;52.14258;101258.5;;;;-76
2022/03/11 21:07:25;;;;;;;24.7;10.5;;;;;;;;;;;;;-76
2022/03/11 21:11:12;;;;;;;;;;;;;;;9.24;52.10645;101270.7;;;;-76
2022/03/11 21:16:13;;;;;;;;;;;;;;;9.19;52.14648;101272;;;;-75
2022/03/11 21:21:18;;;;;;;;;;;;;;;9.15;52.15137;101266.3;;;;-76
2022/03/11 21:26:15;;;;;;;;;;;;;;;9.1;52.45703;101273.7;;;;-76
2022/03/11 21:31:11;;;;;;;;;;;;;;;9.03;52.52637;101278;;;;-77
2022/03/11 21:36:22;;;;;;;;;;;;;;;8.98;52.76465;101275.2;;;;-75
2022/03/11 21:37:24;;;;;;;25.5;10.1;;;;;;;;;;;;;-77
2022/03/11 21:41:12;;;;;;;;;;;;;;;8.9;52.84473;101271.2;;;;-77
2022/03/11 21:46:16;;;;;;;;;;;;;;;8.84;53.01465;101273;;;;-77
2022/03/11 21:51:13;;;;;;;;;;;;;;;8.77;52.96289;101273.5;;;;-77
2022/03/11 21:56:21;;;;;;;;;;;;;;;8.71;53.17676;101275.2;;;;-77
2022/03/11 22:06:42;;;;;;;;;;;;;;;8.58;52.90527;101284.5;;;;-76
2022/03/11 22:07:26;;;;;;;22.7;9.8;;;;;;;;;;;;;-78
2022/03/11 22:11:57;;;;;;;;;;;;;;;8.58;53.28223;101294.3;;;;-78
2022/03/11 22:17:00;;;;;;;;;;;;;;;8.56;53.08008;101297.4;;;;-78
2022/03/11 22:21:42;;;;;;;;;;;;;;;8.54;53.36719;101299.8;;;;-76
2022/03/11 22:26:47;;;;;;;;;;;;;;;8.49;53.12793;101300;;;;-76
2022/03/11 22:31:49;;;;;;;;;;;;;;;8.45;53.50977;101292.9;;;;-77
2022/03/11 22:36:52;;;;;;;;;;;;;;;8.4;53.7041;101290.4;;;;-76
2022/03/11 22:37:30;;;;;;;19.8;9.2;;;;;;;;;;;;;-77
2022/03/11 22:41:50;;;;;;;;;;;;;;;8.36;53.96582;101296.1;;;;-76
2022/03/11 22:46:45;;;;;;;;;;;;;;;8.32;54.03711;101294.1;;;;-77
2022/03/11 22:51:43;;;;;;;;;;;;;;;8.29;54.03418;101294.1;;;;-77
2022/03/11 23:01:53;;;;;;;;;;;;;;;8.29;54.07813;101296.1;;;;-77
2022/03/11 23:11:41;;;;;;;;;;;;;;;8.28;54.04395;101302.9;;;;-77
2022/03/11 23:16:41;;;;;;;;;;;;;;;8.26;54.04199;101304.8;;;;-77
2022/03/11 23:21:51;;;;;;;;;;;;;;;8.26;54.00977;101303.9;;;;-77
2022/03/11 23:26:43;;;;;;;;;;;;;;;8.24;53.99512;101306.8;;;;-77
2022/03/11 23:31:44;;;;;;;;;;;;;;;8.23;53.86133;101299.8;;;;-77
2022/03/11 23:36:42;;;;;;;;;;;;;;;8.23;53.82813;101300.8;;;;-75
2022/03/11 23:37:25;;;;;;;18.4;8.4;;;;;;;;;;;;;-78
2022/03/11 23:41:56;;;;;;;;;;;;;;;8.23;53.63965;101297.1;;;;-77
2022/03/11 23:46:52;;;;;;;;;;;;;;;8.24;53.44043;101291.4;;;;-77
2022/03/11 23:51:42;;;;;;;;;;;;;;;8.25;53.20898;101297.1;;;;-77
2022/03/11 23:56:51;;;;;;;;;;;;;;;8.26;53.12109;101293.4;;;;-77
